createdAt,value
2018-06-24T00:01:17.241Z,2.29
2018-06-24T00:05:17.974Z,2.28
2018-06-24T00:11:18.668Z,2.66
2018-06-24T00:15:19.920Z,2.69
2018-06-24T00:17:20.601Z,2.93
2018-06-24T00:21:21.425Z,2.8
2018-06-24T00:27:22.095Z,3.14
2018-06-24T00:31:22.950Z,2.96
2018-06-24T00:37:23.793Z,3.24
2018-06-24T00:41:24.439Z,2.87
2018-06-24T00:43:25.160Z,2.71
2018-06-24T00:47:25.864Z,2.62
2018-06-24T00:53:26.652Z,2.82
2018-06-24T00:57:27.434Z,2.25
2018-06-24T01:03:28.184Z,2.16
2018-06-24T01:07:28.987Z,2.27
2018-06-24T01:09:29.749Z,2.33
2018-06-24T01:13:30.485Z,2.28
2018-06-24T01:19:31.161Z,2.01
2018-06-24T01:23:32.019Z,1.76
2018-06-24T01:29:32.702Z,2.11
2018-06-24T01:33:33.462Z,1.89
2018-06-24T01:35:34.097Z,1.93
2018-06-24T01:39:34.921Z,1.84
2018-06-24T01:45:35.677Z,1.94
2018-06-24T01:49:36.405Z,1.77
2018-06-24T01:55:37.184Z,2.1
2018-06-24T02:01:37.981Z,2.18
2018-06-24T02:05:38.660Z,2.29
2018-06-24T02:11:39.576Z,2.03
2018-06-24T02:15:40.877Z,1.61
2018-06-24T02:21:41.571Z,2.03
2018-06-24T02:27:42.309Z,2.04
2018-06-24T02:31:43.117Z,2.15
2018-06-24T02:37:43.765Z,2.16
2018-06-24T02:41:44.561Z,1.76
2018-06-24T02:47:45.288Z,2.41
2018-06-24T02:53:46.280Z,1.88
2018-06-24T02:57:46.940Z,1.7
2018-06-24T03:03:47.647Z,2.13
2018-06-24T03:07:48.428Z,2.01
2018-06-24T03:13:49.316Z,1.8
2018-06-24T03:19:49.935Z,1.76
2018-06-24T03:23:50.791Z,1.88
2018-06-24T03:29:51.616Z,2.04
2018-06-24T03:33:52.364Z,1.67
2018-06-24T03:39:53.088Z,1.85
2018-06-24T03:45:53.872Z,2.26
2018-06-24T03:49:54.648Z,2.27
2018-06-24T03:55:55.424Z,2.24
2018-06-24T03:59:56.144Z,1.96
2018-06-24T04:05:56.961Z,2.37
2018-06-24T04:11:57.733Z,1.98
2018-06-24T04:15:58.708Z,1.84
2018-06-24T04:21:59.497Z,2.37
2018-06-24T04:26:00.159Z,1.85
2018-06-24T04:32:00.826Z,1.89
2018-06-24T04:38:01.654Z,2.11
2018-06-24T04:42:02.573Z,1.88
2018-06-24T04:48:03.434Z,2.09
2018-06-24T04:52:04.244Z,1.71
2018-06-24T04:54:04.923Z,1.92
2018-06-24T04:58:05.621Z,1.81
2018-06-24T05:04:06.366Z,2.08
2018-06-24T05:08:07.402Z,1.71
2018-06-24T05:14:08.362Z,2.18
2018-06-24T05:18:09.137Z,1.75
2018-06-24T05:20:09.874Z,2.31
2018-06-24T05:24:10.618Z,1.96
2018-06-24T05:30:11.756Z,2.21
2018-06-24T05:34:12.537Z,2.02
2018-06-24T05:40:13.456Z,2.73
2018-06-24T05:44:14.095Z,2.4
2018-06-24T05:46:14.817Z,2.4
2018-06-24T05:50:15.544Z,2.23
2018-06-24T05:56:16.330Z,2.2
2018-06-24T06:00:17.644Z,2.13
2018-06-24T06:06:18.446Z,2.24
2018-06-24T06:10:19.374Z,2.09
2018-06-24T06:12:20.218Z,2.52
2018-06-24T06:16:20.948Z,2.18
2018-06-24T06:22:22.318Z,2.55
2018-06-24T06:26:23.133Z,2.65
2018-06-24T06:32:23.833Z,2.72
2018-06-24T06:36:25.476Z,2.62
2018-06-24T06:38:26.248Z,2.84
2018-06-24T06:42:27.101Z,2.51
2018-06-24T06:48:27.853Z,2.22
2018-06-24T06:52:28.605Z,2.3
2018-06-24T06:58:29.431Z,2.42
2018-06-24T07:02:30.143Z,2.25
2018-06-24T07:04:30.918Z,2.31
2018-06-24T07:08:31.622Z,1.92
2018-06-24T07:14:32.465Z,2.1
2018-06-24T07:18:33.221Z,1.98
2018-06-24T07:24:33.852Z,1.84
2018-06-24T07:28:34.612Z,1.83
2018-06-24T07:30:35.878Z,1.89
2018-06-24T07:34:36.687Z,1.84
2018-06-24T07:40:37.348Z,2.05
2018-06-24T07:44:38.002Z,2.22
2018-06-24T07:50:38.840Z,2.07
2018-06-24T07:54:39.641Z,2.03
2018-06-24T07:56:40.414Z,2.28
2018-06-24T08:00:41.184Z,2.11
2018-06-24T08:06:42.002Z,2.05
2018-06-24T08:10:42.738Z,1.79
2018-06-24T08:16:43.490Z,1.81
2018-06-24T08:20:44.239Z,1.79
2018-06-24T08:22:45.050Z,1.66
2018-06-24T08:26:45.625Z,1.54
2018-06-24T08:32:46.407Z,2.03
2018-06-24T08:36:47.112Z,1.53
2018-06-24T08:42:47.914Z,1.58
2018-06-24T08:46:48.600Z,1.15
2018-06-24T08:48:49.236Z,1.39
2018-06-24T08:52:49.964Z,1.23
2018-06-24T08:58:50.628Z,1.26
2018-06-24T09:02:51.350Z,1.15
2018-06-24T09:08:52.604Z,1.15
2018-06-24T09:12:53.546Z,1
2018-06-24T09:14:54.207Z,1.33
2018-06-24T09:18:54.959Z,0.89
2018-06-24T09:24:55.788Z,1.14
2018-06-24T09:28:56.514Z,1.07
2018-06-24T09:34:57.229Z,1.16
2018-06-24T09:38:58.149Z,0.91
2018-06-24T09:40:59.988Z,1.19
2018-06-24T09:45:00.842Z,1.08
2018-06-24T09:51:02.858Z,1.04
2018-06-24T09:55:03.593Z,0.84
2018-06-24T10:01:04.373Z,1.22
2018-06-24T10:05:05.009Z,1.06
2018-06-24T10:07:05.825Z,1.14
2018-06-24T10:11:06.514Z,0.88
2018-06-24T10:17:07.334Z,1.04
2018-06-24T10:21:08.137Z,0.94
2018-06-24T10:27:08.738Z,1.23
2018-06-24T10:31:09.379Z,1.05
2018-06-24T10:33:10.073Z,1.07
2018-06-24T10:37:10.874Z,1.08
2018-06-24T10:43:11.533Z,1.13
2018-06-24T10:47:12.263Z,0.97
2018-06-24T10:53:13.044Z,1.36
2018-06-24T10:59:13.950Z,1.51
2018-06-24T11:03:14.668Z,1.23
2018-06-24T11:09:15.422Z,1.43
2018-06-24T11:13:16.225Z,1.1
2018-06-24T11:19:16.949Z,1.51
2018-06-24T11:25:17.760Z,1.62
2018-06-24T11:29:18.589Z,1.69
2018-06-24T11:35:19.488Z,1.35
2018-06-24T11:39:20.198Z,1.39
2018-06-24T11:45:21.320Z,1.27
2018-06-24T11:51:22.197Z,1.8
2018-06-24T11:55:23.043Z,1.17
2018-06-24T12:01:23.857Z,1.48
2018-06-24T12:05:24.555Z,1.6
2018-06-24T12:11:25.480Z,2.29
2018-06-24T12:17:27.727Z,1.73
2018-06-24T12:21:27.000Z,1.32
2018-06-24T12:27:27.819Z,1.38
2018-06-24T12:31:28.538Z,1.18
2018-06-24T12:37:29.460Z,1.31
2018-06-24T12:43:30.169Z,1.41
2018-06-24T12:47:30.826Z,1.31
2018-06-24T12:53:31.498Z,1.65
2018-06-24T12:57:32.277Z,1.47
2018-06-24T12:59:33.138Z,1.58
2018-06-24T13:03:33.706Z,1.28
2018-06-24T13:09:34.509Z,1.75
2018-06-24T13:13:35.317Z,1.23
2018-06-24T13:19:36.024Z,1.43
2018-06-24T13:23:36.814Z,1.13
2018-06-24T13:25:37.549Z,1.54
2018-06-24T13:29:38.493Z,1.41
2018-06-24T13:35:39.297Z,1.38
2018-06-24T13:39:40.125Z,1.23
2018-06-24T13:45:40.890Z,1.66
2018-06-24T13:49:41.696Z,1.28
2018-06-24T13:51:42.437Z,1.59
2018-06-24T13:55:43.160Z,1.34
2018-06-24T14:01:43.934Z,1.5
2018-06-24T14:05:44.694Z,1.57
2018-06-24T14:11:45.446Z,1.43
2018-06-24T14:15:46.227Z,1.47
2018-06-24T14:17:47.204Z,1.53
2018-06-24T14:21:48.018Z,1.49
2018-06-24T14:27:48.674Z,1.35
2018-06-24T14:31:49.477Z,1.42
2018-06-24T14:37:50.429Z,1.45
2018-06-24T14:41:51.216Z,1.45
2018-06-24T14:43:52.032Z,1.42
2018-06-24T14:47:52.651Z,1.39
2018-06-24T14:53:53.389Z,1.47
2018-06-24T14:57:54.132Z,1.38
2018-06-24T15:03:55.190Z,1.27
2018-06-24T15:09:56.050Z,1.4
2018-06-24T15:13:57.013Z,1.19
2018-06-24T15:19:57.720Z,1.34
2018-06-24T15:23:58.616Z,1.23
2018-06-24T15:29:59.391Z,1.3
2018-06-24T15:36:00.112Z,1.57
2018-06-24T15:40:00.938Z,1.41
2018-06-24T15:46:01.721Z,1.18
2018-06-24T15:50:02.648Z,1.47
2018-06-24T15:56:03.389Z,1.35
2018-06-24T16:02:04.381Z,1.81
2018-06-24T16:06:05.167Z,1.74
2018-06-24T16:12:06.026Z,1.45
2018-06-24T16:16:06.699Z,1.93
2018-06-24T16:22:07.396Z,1.55
2018-06-24T16:28:08.192Z,1.97
2018-06-24T16:32:09.024Z,3.99
2018-06-24T16:38:09.675Z,1.67
2018-06-24T16:42:10.703Z,1.5
2018-06-24T16:44:11.434Z,1.28
2018-06-24T16:48:12.505Z,1.31
2018-06-24T16:54:13.273Z,4.31
2018-06-24T16:58:13.930Z,2.71
2018-06-24T17:04:14.766Z,2.69
2018-06-24T17:08:15.688Z,3.83
2018-06-24T17:10:16.243Z,2.81
2018-06-24T17:14:17.235Z,3.04
2018-06-24T17:20:18.077Z,2.18
2018-06-24T17:24:19.071Z,1.79
2018-06-24T17:30:20.271Z,1.96
2018-06-24T17:34:20.947Z,1.78
2018-06-24T17:36:21.805Z,2.68
2018-06-24T17:40:22.799Z,2.64
2018-06-24T17:46:23.676Z,1.8
2018-06-24T17:50:24.333Z,1.96
2018-06-24T17:56:25.061Z,1.76
2018-06-24T18:00:26.741Z,1.91
2018-06-24T18:02:27.435Z,1.75
2018-06-24T18:06:28.274Z,1.72
2018-06-24T18:12:29.370Z,2.33
2018-06-24T18:16:30.495Z,1.99
2018-06-24T18:22:31.568Z,2.39
2018-06-24T18:26:32.540Z,1.96
2018-06-24T18:28:33.524Z,1.84
2018-06-24T18:32:34.501Z,1.51
2018-06-24T18:38:35.243Z,2.56
2018-06-24T18:42:36.076Z,2.61
2018-06-24T18:48:36.920Z,3.21
2018-06-24T18:52:37.765Z,3.09
2018-06-24T18:54:38.473Z,2.7
2018-06-24T18:58:39.421Z,2.5
2018-06-24T19:04:40.277Z,2.83
2018-06-24T19:08:41.296Z,2.44
2018-06-24T19:14:42.022Z,2.34
2018-06-24T19:18:42.819Z,2.41
2018-06-24T19:20:43.698Z,2.38
2018-06-24T19:24:44.454Z,2.49
2018-06-24T19:30:45.189Z,3.21
2018-06-24T19:34:46.237Z,3.17
2018-06-24T19:40:47.254Z,2.92
2018-06-24T19:46:48.108Z,3.27
2018-06-24T19:50:48.747Z,3.14
2018-06-24T19:56:49.496Z,5.07
2018-06-24T20:00:50.264Z,4.71
2018-06-24T20:06:51.107Z,3.43
2018-06-24T20:12:51.926Z,3.22
2018-06-24T20:16:52.875Z,2.87
2018-06-24T20:22:53.589Z,5.1
2018-06-24T20:26:54.307Z,4.26
2018-06-24T20:32:55.051Z,3.24
2018-06-24T20:38:55.927Z,3.72
2018-06-24T20:42:56.782Z,3.14
2018-06-24T20:48:57.599Z,3.11
2018-06-24T20:52:58.714Z,2.87
2018-06-24T20:58:59.364Z,3.13
2018-06-24T21:05:00.189Z,2.56
2018-06-24T21:09:01.023Z,2.59
2018-06-24T21:15:02.234Z,2.91
2018-06-24T21:19:02.899Z,2.85
2018-06-24T21:25:03.540Z,3.77
2018-06-24T21:31:04.318Z,3.72
2018-06-24T21:35:05.067Z,3.79
2018-06-24T21:41:05.801Z,3.32
2018-06-24T21:45:06.963Z,3.75
2018-06-24T21:47:07.702Z,4.47
2018-06-24T21:51:08.717Z,4.47
2018-06-24T21:57:09.416Z,3.76
2018-06-24T22:01:10.284Z,3.74
2018-06-24T22:07:11.052Z,4.98
2018-06-24T22:11:11.686Z,4.8
2018-06-24T22:13:12.716Z,5.14
2018-06-24T22:17:13.395Z,5.51
2018-06-24T22:23:14.248Z,5.02
2018-06-24T22:27:14.984Z,5.01
2018-06-24T22:33:15.920Z,4.1
2018-06-24T22:37:16.590Z,3.85
2018-06-24T22:39:17.197Z,3.62
2018-06-24T22:43:17.906Z,3.4
2018-06-24T22:49:18.614Z,3.3
2018-06-24T22:53:19.384Z,3.44
2018-06-24T22:59:20.296Z,4.61
2018-06-24T23:03:21.033Z,3.85
2018-06-24T23:05:21.730Z,3.77
2018-06-24T23:09:22.472Z,3.25
2018-06-24T23:15:23.472Z,4.43
2018-06-24T23:19:24.196Z,4.87
2018-06-24T23:25:24.948Z,3.61
2018-06-24T23:29:25.719Z,2.99
2018-06-24T23:31:26.444Z,3.41
2018-06-24T23:35:27.156Z,3.46
2018-06-24T23:41:28.252Z,2.6
2018-06-24T23:45:29.561Z,2.75
2018-06-24T23:51:30.355Z,2.86
2018-06-24T23:55:31.056Z,2.59
2018-06-24T23:57:31.731Z,2.71
